Главная страница
METAR-TAF:

METAR-TAF

Аэропорты :

Элефтериос Венизелос

Афины, Греция

широта: 37-56N, долгота: 023-56E, высота над уровнем моря: 94 м

Текущие метеонаблюдения

Эта сводка был подготовлена 19 минут назад, в 03:20 UTC
Штиль
Температура 20°C
Влажность 56%
Давление 1010 hPa
Видимость 10 км и более
Нет облачности ниже 1500 м, и нет кучево-дождевой облачности

METAR: LGAV 150320Z 00000KT CAVOK 20/11 Q1010 NOSIG

Время: 06:39 (03:39 UTC)

Прогноз

Эта сводка был подготовлена 4 часа и 39 минут назад, в 23:00 UTC
Прогноз действительный с 15-го 00 UTC до 15-го 24 UTC
Ветер 3 Узел переменных направлений
Видимость 10 км и более
небольшая облачность на высоте 2500 фута
временами
С 15-го 05 UTC до 15-го 07 UTC
Ветер 16 Узел от северо-северо-восточный
изменения
С 15-го 17 UTC до 15-го 19 UTC
Ветер 3 Узел переменных направлений

TAF: LGAV 142300Z 1500/1524 VRB03KT 9999 FEW025 TEMPO 1505/1507 03016KT BECMG 1517/1519 VRB03KT

Метеонаблюдения и прогнозы для более 4000 аэропортов (сводки METAR и TAF).

Имеющиеся станции представлены на карте желтыми и красными точками.

Чтобы увидеть название станции, наведите на нее мышь.

Затем щелкните, чтобы увидеть метеонаблюдения и метеопрогнозы.

Управление картой: чтобы увеличить масштаб, щелкните зеленые кнопки с черным крестиком; чтобы уменьшить масштаб, щелкните зеленую кнопку с тире; для просмотра соседних карт щелкайте зеленые стрелки.


METAR-TAF: